Fredericia, Denmark
Current Conditions -  °F | °C
As of 1:50 PM on Friday 31 Oct 2014 (Local Time) from EKOD Reporting Station
Haze Haze  
Wind Chill: 52°   Ceiling: 700
Heat Index: 52°   Visibility: 1.5mi
Dew Point: 50°   Wind: 3mph
Humidity: 94%   Direction: 180°S
Pressure: 30.15"   Gusts: NA
Location:  55.57°N, 9.75°E
Report Text: EKOD 311250Z 18003KT 2500 BR VV007 11/10 Q1021
Loading
Personal Weather Stations






























Interactive Weather Map
Tropical Storm Tracking
New forecast layout! Learn more

10-Day Weather Forecast

Advertisements
Track Severe Weather on mobile